createdAt,value
2019-06-09T00:00:01.079Z,23.15
2019-06-09T00:01:02.232Z,23.18
2019-06-09T00:02:00.947Z,23.15
2019-06-09T00:03:00.777Z,23.19
2019-06-09T00:04:00.575Z,23.12
2019-06-09T00:05:01.389Z,23.18
2019-06-09T00:06:01.415Z,23.21
2019-06-09T00:07:01.424Z,23.16
2019-06-09T00:09:01.455Z,23.16
2019-06-09T00:10:01.580Z,23.23
2019-06-09T00:11:00.865Z,23.21
2019-06-09T00:12:00.844Z,23.16
2019-06-09T00:13:00.858Z,23.21
2019-06-09T00:14:01.756Z,23.18
2019-06-09T00:15:01.279Z,23.19
2019-06-09T00:18:02.064Z,23.11
2019-06-09T00:19:01.532Z,23.06
2019-06-09T00:20:02.411Z,23.09
2019-06-09T00:21:01.715Z,23.09
2019-06-09T00:22:01.465Z,23.09
2019-06-09T00:23:02.014Z,23.07
2019-06-09T00:24:01.682Z,23.11
2019-06-09T00:25:01.975Z,23.07
2019-06-09T00:26:01.849Z,23.01
2019-06-09T00:27:01.890Z,23.03
2019-06-09T00:29:02.131Z,23.04
2019-06-09T00:31:02.521Z,23.06
2019-06-09T00:33:02.862Z,23.04
2019-06-09T00:35:02.299Z,23.03
2019-06-09T00:36:02.288Z,23.06
2019-06-09T00:37:02.279Z,23.01
2019-06-09T00:38:03.347Z,23.09
2019-06-09T00:39:01.079Z,22.99
2019-06-09T00:40:01.106Z,22.97
2019-06-09T00:41:01.140Z,22.94
2019-06-09T00:42:01.170Z,23.01
2019-06-09T00:43:01.318Z,22.97
2019-06-09T00:44:01.238Z,22.96
2019-06-09T00:46:01.606Z,22.99
2019-06-09T00:47:01.355Z,22.94
2019-06-09T00:48:01.367Z,22.94
2019-06-09T00:49:01.411Z,23.01
2019-06-09T00:50:01.383Z,23.04
2019-06-09T00:51:01.469Z,22.99
2019-06-09T00:52:01.798Z,22.89
2019-06-09T00:53:01.541Z,22.97
2019-06-09T00:55:01.624Z,23.00
2019-06-09T00:56:01.635Z,22.96
2019-06-09T00:57:01.666Z,22.99
2019-06-09T00:58:01.694Z,22.94
2019-06-09T00:59:02.135Z,22.91
2019-06-09T01:00:01.990Z,22.86
2019-06-09T01:02:04.337Z,22.97
2019-06-09T01:03:01.866Z,22.85
2019-06-09T01:04:02.010Z,22.86
2019-06-09T01:05:01.935Z,22.85
2019-06-09T01:06:02.262Z,22.85
2019-06-09T01:07:01.991Z,22.85
2019-06-09T01:08:02.024Z,22.91
2019-06-09T01:09:02.113Z,22.89
2019-06-09T01:10:02.094Z,22.85
2019-06-09T01:11:02.183Z,22.85
2019-06-09T01:12:02.108Z,22.86
2019-06-09T01:13:02.497Z,22.85
2019-06-09T01:14:02.236Z,22.85
2019-06-09T01:16:02.288Z,22.86
2019-06-09T01:17:02.327Z,22.88
2019-06-09T01:18:02.365Z,22.84
2019-06-09T01:20:02.503Z,22.78
2019-06-09T01:21:02.756Z,22.75
2019-06-09T01:22:02.483Z,22.72
2019-06-09T01:23:02.523Z,22.70
2019-06-09T01:24:02.551Z,22.78
2019-06-09T01:26:02.626Z,22.70
2019-06-09T01:27:02.655Z,22.75
2019-06-09T01:28:02.991Z,22.72
2019-06-09T01:29:02.718Z,22.70
2019-06-09T01:30:09.322Z,22.75
2019-06-09T01:31:02.783Z,22.63
2019-06-09T01:32:14.465Z,22.70
2019-06-09T01:33:02.900Z,22.67
2019-06-09T01:34:02.833Z,22.78
2019-06-09T01:35:03.217Z,22.75
2019-06-09T01:36:02.955Z,22.67
2019-06-09T01:37:02.991Z,22.66
2019-06-09T01:38:03.015Z,22.66
2019-06-09T01:39:03.059Z,22.72
2019-06-09T01:40:03.094Z,22.70
2019-06-09T01:41:03.122Z,22.67
2019-06-09T01:42:03.453Z,22.70
2019-06-09T01:43:03.131Z,22.66
2019-06-09T01:44:03.215Z,22.74
2019-06-09T01:46:03.294Z,22.60
2019-06-09T01:47:03.770Z,22.59
2019-06-09T01:48:03.350Z,22.61
2019-06-09T01:49:03.850Z,22.56
2019-06-09T01:50:03.359Z,22.66
2019-06-09T01:51:03.440Z,22.54
2019-06-09T01:52:03.478Z,22.60
2019-06-09T01:53:03.522Z,22.66
2019-06-09T01:54:03.535Z,22.66
2019-06-09T01:55:03.579Z,22.57
2019-06-09T01:56:03.914Z,22.61
2019-06-09T01:57:03.643Z,22.56
2019-06-09T01:58:03.669Z,22.60
2019-06-09T01:59:03.711Z,22.59
2019-06-09T02:00:03.743Z,22.59
2019-06-09T02:01:03.775Z,22.48
2019-06-09T02:02:03.805Z,22.60
2019-06-09T02:03:04.187Z,22.45
2019-06-09T02:04:03.870Z,22.59
2019-06-09T02:05:03.928Z,22.49
2019-06-09T02:06:03.934Z,22.51
2019-06-09T02:07:03.961Z,22.46
2019-06-09T02:08:03.997Z,22.49
2019-06-09T02:09:04.027Z,22.44
2019-06-09T02:10:04.362Z,22.45
2019-06-09T02:11:04.093Z,22.51
2019-06-09T02:12:04.138Z,22.42
2019-06-09T02:13:04.160Z,22.51
2019-06-09T02:14:04.227Z,22.48
2019-06-09T02:15:04.233Z,22.48
2019-06-09T02:16:04.263Z,22.39
2019-06-09T02:17:06.961Z,22.44
2019-06-09T02:18:04.328Z,22.45
2019-06-09T02:19:04.368Z,22.39
2019-06-09T02:20:04.397Z,22.45
2019-06-09T02:21:04.440Z,22.46
2019-06-09T02:22:04.460Z,22.33
2019-06-09T02:23:04.493Z,22.36
2019-06-09T02:24:04.839Z,22.23
2019-06-09T02:25:04.555Z,22.31
2019-06-09T02:26:04.585Z,22.21
2019-06-09T02:27:04.662Z,22.33
2019-06-09T02:28:04.661Z,22.29
2019-06-09T02:30:08.753Z,22.26
2019-06-09T02:31:08.850Z,22.31
2019-06-09T02:32:04.828Z,22.29
2019-06-09T02:33:13.116Z,22.31
2019-06-09T02:34:04.847Z,22.33
2019-06-09T02:35:04.900Z,22.23
2019-06-09T02:36:14.251Z,22.21
2019-06-09T02:37:04.952Z,22.26
2019-06-09T02:38:04.978Z,22.29
2019-06-09T02:39:05.014Z,22.15
2019-06-09T02:40:05.043Z,22.20
2019-06-09T02:41:05.077Z,22.20
2019-06-09T02:42:05.108Z,22.24
2019-06-09T02:43:05.536Z,22.20
2019-06-09T02:44:05.181Z,22.17
2019-06-09T02:45:05.214Z,22.17
2019-06-09T02:46:05.248Z,22.17
2019-06-09T02:47:05.291Z,22.15
2019-06-09T02:48:05.335Z,22.15
2019-06-09T02:49:05.642Z,22.14
2019-06-09T02:50:05.471Z,22.11
2019-06-09T02:51:05.405Z,22.15
2019-06-09T02:52:05.440Z,22.15
2019-06-09T02:53:05.483Z,22.12
2019-06-09T02:54:05.496Z,22.08
2019-06-09T02:55:05.533Z,22.08
2019-06-09T02:57:05.896Z,22.05
2019-06-09T02:59:05.672Z,22.04
2019-06-09T03:00:05.703Z,22.01
2019-06-09T03:01:05.723Z,22.05
2019-06-09T03:03:25.170Z,21.98
2019-06-09T03:04:11.523Z,22.02
2019-06-09T03:05:05.858Z,22.04
2019-06-09T03:06:05.914Z,22.08
2019-06-09T03:07:05.939Z,22.04
2019-06-09T03:11:06.057Z,22.08
2019-06-09T03:12:06.387Z,22.05
2019-06-09T03:13:06.111Z,22.01
2019-06-09T03:14:06.144Z,22.05
2019-06-09T03:15:06.175Z,21.99
2019-06-09T03:16:06.212Z,21.98
2019-06-09T03:17:06.243Z,21.98
2019-06-09T03:18:06.591Z,22.08
2019-06-09T03:19:06.310Z,21.98
2019-06-09T03:20:06.382Z,21.99
2019-06-09T03:21:06.380Z,22.02
2019-06-09T03:22:06.408Z,21.96
2019-06-09T03:23:06.452Z,21.98
2019-06-09T03:24:06.475Z,22.01
2019-06-09T03:25:06.828Z,21.98
2019-06-09T03:26:06.505Z,22.01
2019-06-09T03:27:06.520Z,21.94
2019-06-09T03:28:06.723Z,21.98
2019-06-09T03:29:06.663Z,21.99
2019-06-09T03:30:06.637Z,22.01
2019-06-09T03:31:20.987Z,21.99
2019-06-09T03:32:26.772Z,21.99
2019-06-09T03:36:45.164Z,21.98
2019-06-09T03:38:30.963Z,21.98
2019-06-09T03:39:06.960Z,21.96
2019-06-09T03:40:06.995Z,21.89
2019-06-09T03:41:07.029Z,21.91
2019-06-09T03:42:09.108Z,21.94
2019-06-09T03:43:07.102Z,21.91
2019-06-09T03:44:07.119Z,21.90
2019-06-09T03:45:07.493Z,21.96
2019-06-09T03:46:07.193Z,21.90
2019-06-09T03:47:07.242Z,21.90
2019-06-09T03:48:07.247Z,21.85
2019-06-09T03:49:07.384Z,21.89
2019-06-09T03:50:07.557Z,21.96
2019-06-09T03:51:07.357Z,21.98
2019-06-09T03:53:07.743Z,21.94
2019-06-09T03:54:07.436Z,21.99
2019-06-09T03:55:15.712Z,21.96
2019-06-09T03:56:07.508Z,22.02
2019-06-09T03:57:09.178Z,21.91
2019-06-09T03:58:07.577Z,21.94
2019-06-09T03:59:07.596Z,21.94
2019-06-09T04:00:13.757Z,21.96
2019-06-09T04:01:07.679Z,21.93
2019-06-09T04:03:07.732Z,21.91
2019-06-09T04:04:07.763Z,21.93
2019-06-09T04:05:07.794Z,21.86
2019-06-09T04:06:20.468Z,21.94
2019-06-09T04:07:08.162Z,21.93
2019-06-09T04:08:07.893Z,21.93
2019-06-09T04:09:07.927Z,21.99
2019-06-09T04:10:08.125Z,21.90
2019-06-09T04:11:07.996Z,21.89
2019-06-09T04:12:08.059Z,21.98
2019-06-09T04:14:08.100Z,21.93
2019-06-09T04:15:08.455Z,21.89
2019-06-09T04:16:12.221Z,21.86
2019-06-09T04:17:08.193Z,21.93
2019-06-09T04:18:11.406Z,21.93
2019-06-09T04:19:08.257Z,21.86
2019-06-09T04:20:11.726Z,21.98
2019-06-09T04:21:08.338Z,21.91
2019-06-09T04:22:11.381Z,21.96
2019-06-09T04:23:08.377Z,21.93
2019-06-09T04:24:08.409Z,21.91
2019-06-09T04:25:11.429Z,21.90
2019-06-09T04:26:11.630Z,21.94
2019-06-09T04:27:08.513Z,21.99
2019-06-09T04:28:11.843Z,21.99
2019-06-09T04:29:12.154Z,21.98
2019-06-09T04:30:13.480Z,21.98
2019-06-09T04:31:12.876Z,21.96
2019-06-09T04:32:11.688Z,22.02
2019-06-09T04:34:08.734Z,22.02
2019-06-09T04:35:12.196Z,21.98
2019-06-09T04:36:25.332Z,21.93
2019-06-09T04:37:12.328Z,21.98
2019-06-09T04:38:11.549Z,21.99
2019-06-09T04:40:08.948Z,22.04
2019-06-09T04:41:11.896Z,22.08
2019-06-09T04:42:12.010Z,22.06
2019-06-09T04:43:12.678Z,22.02
2019-06-09T04:44:09.055Z,22.01
2019-06-09T04:45:11.910Z,22.01
2019-06-09T04:46:12.206Z,22.01
2019-06-09T04:47:11.778Z,22.08
2019-06-09T04:48:11.954Z,22.04
2019-06-09T04:49:12.531Z,22.05
2019-06-09T04:51:12.277Z,22.05
2019-06-09T04:52:12.324Z,22.08
2019-06-09T04:53:12.023Z,22.06
2019-06-09T04:54:12.323Z,22.06
2019-06-09T04:55:12.291Z,22.11
2019-06-09T04:56:12.591Z,22.11
2019-06-09T04:57:12.131Z,22.09
2019-06-09T04:58:14.798Z,22.09
2019-06-09T04:59:11.951Z,22.04
2019-06-09T05:00:14.003Z,22.11
2019-06-09T05:01:12.836Z,22.14
2019-06-09T05:02:12.244Z,22.15
2019-06-09T05:03:12.502Z,22.09
2019-06-09T05:04:12.466Z,22.19
2019-06-09T05:06:14.485Z,22.21
2019-06-09T05:07:20.982Z,22.24
2019-06-09T05:08:13.339Z,22.23
2019-06-09T05:10:12.908Z,22.26
2019-06-09T05:11:11.935Z,22.24
2019-06-09T05:12:12.463Z,22.31
2019-06-09T05:13:12.260Z,22.31
2019-06-09T05:14:12.012Z,22.29
2019-06-09T05:15:12.925Z,22.30
2019-06-09T05:17:12.770Z,22.26
2019-06-09T05:18:12.848Z,22.33
2019-06-09T05:19:13.213Z,22.30
2019-06-09T05:20:13.131Z,22.31
2019-06-09T05:21:11.878Z,22.39
2019-06-09T05:22:12.484Z,22.41
2019-06-09T05:23:11.780Z,22.45
2019-06-09T05:24:12.563Z,22.41
2019-06-09T05:25:11.769Z,22.39
2019-06-09T05:26:12.363Z,22.39
2019-06-09T05:27:12.800Z,22.39
2019-06-09T05:28:12.713Z,22.44
2019-06-09T05:29:11.507Z,22.41
2019-06-09T05:30:12.103Z,22.51
2019-06-09T05:31:12.200Z,22.48
2019-06-09T05:32:11.494Z,22.46
2019-06-09T05:33:11.107Z,22.46
2019-06-09T05:34:11.569Z,22.45
2019-06-09T05:35:12.487Z,22.45
2019-06-09T05:36:11.812Z,22.51
2019-06-09T05:37:21.117Z,22.49
2019-06-09T05:38:11.287Z,22.57
2019-06-09T05:39:12.419Z,22.64
2019-06-09T05:40:11.858Z,22.61
2019-06-09T05:41:11.671Z,22.56
2019-06-09T05:42:11.433Z,22.59
2019-06-09T05:43:10.986Z,22.64
2019-06-09T05:44:11.209Z,22.59
2019-06-09T05:45:11.381Z,22.56
2019-06-09T05:46:11.081Z,22.59
2019-06-09T05:47:11.402Z,22.60
2019-06-09T05:48:11.500Z,22.67
2019-06-09T05:49:11.177Z,22.67
2019-06-09T05:50:11.721Z,22.74
2019-06-09T05:55:11.623Z,22.57
2019-06-09T05:56:11.708Z,22.70
2019-06-09T05:57:11.453Z,22.74
2019-06-09T05:58:11.537Z,22.72
2019-06-09T05:59:11.504Z,22.78
2019-06-09T06:00:12.059Z,22.74
2019-06-09T06:01:11.577Z,22.75
2019-06-09T06:03:11.930Z,22.70
2019-06-09T06:04:11.969Z,22.78
2019-06-09T06:05:11.708Z,22.86
2019-06-09T06:06:11.745Z,22.89
2019-06-09T06:08:11.836Z,22.82
2019-06-09T06:09:11.840Z,22.88
2019-06-09T06:10:11.957Z,22.82
2019-06-09T06:11:12.208Z,22.97
2019-06-09T06:12:11.943Z,22.85
2019-06-09T06:13:11.972Z,22.89
2019-06-09T06:14:14.578Z,22.93
2019-06-09T06:15:12.035Z,23.00
2019-06-09T06:16:12.031Z,23.03
2019-06-09T06:17:12.104Z,22.93
2019-06-09T06:18:12.437Z,23.01
2019-06-09T06:19:12.168Z,23.03
2019-06-09T06:20:12.202Z,22.99
2019-06-09T06:21:12.243Z,22.97
2019-06-09T06:22:12.274Z,23.01
2019-06-09T06:23:12.331Z,22.93
2019-06-09T06:24:12.329Z,23.00
2019-06-09T06:25:13.812Z,23.01
2019-06-09T06:26:12.407Z,23.00
2019-06-09T06:27:12.432Z,23.03
2019-06-09T06:28:12.469Z,23.01
2019-06-09T06:29:12.446Z,23.07
2019-06-09T06:30:12.535Z,23.01
2019-06-09T06:31:12.618Z,23.04
2019-06-09T06:32:12.912Z,23.07
2019-06-09T06:33:12.640Z,23.07
2019-06-09T06:34:12.678Z,23.07
2019-06-09T06:35:12.701Z,23.03
2019-06-09T06:36:12.730Z,23.09
2019-06-09T06:37:12.774Z,23.09
2019-06-09T06:38:12.809Z,23.01
2019-06-09T06:39:13.134Z,23.03
2019-06-09T06:40:12.862Z,23.11
2019-06-09T06:41:12.902Z,23.14
2019-06-09T06:42:12.952Z,23.06
2019-06-09T06:43:12.967Z,23.04
2019-06-09T06:44:13.002Z,23.16
2019-06-09T06:45:13.035Z,23.22
2019-06-09T06:46:13.383Z,23.23
2019-06-09T06:47:16.222Z,23.18
2019-06-09T06:48:13.128Z,23.12
2019-06-09T06:49:13.160Z,23.15
2019-06-09T06:50:13.199Z,23.14
2019-06-09T06:51:13.302Z,23.21
2019-06-09T06:52:13.266Z,23.14
2019-06-09T06:53:13.602Z,23.12
2019-06-09T06:54:13.280Z,23.23
2019-06-09T06:55:13.378Z,23.15
2019-06-09T06:56:13.407Z,23.15
2019-06-09T06:57:13.438Z,23.29
2019-06-09T06:58:13.470Z,23.29
2019-06-09T06:59:13.500Z,23.23
2019-06-09T07:00:13.831Z,23.25
2019-06-09T07:01:13.521Z,23.29
2019-06-09T07:02:13.604Z,23.22
2019-06-09T07:03:13.637Z,23.26
2019-06-09T07:04:13.670Z,23.31
2019-06-09T07:05:13.702Z,23.38
2019-06-09T07:06:14.043Z,23.31
2019-06-09T07:07:20.914Z,23.37
2019-06-09T07:08:13.802Z,23.34
2019-06-09T07:09:13.838Z,23.39
2019-06-09T07:10:13.868Z,23.35
2019-06-09T07:11:13.904Z,23.34
2019-06-09T07:12:14.294Z,23.22
2019-06-09T07:13:13.971Z,23.41
2019-06-09T07:14:13.999Z,23.38
2019-06-09T07:15:14.039Z,23.37
2019-06-09T07:16:14.069Z,23.29
2019-06-09T07:17:14.112Z,23.39
2019-06-09T07:19:14.477Z,23.35
2019-06-09T07:20:14.204Z,23.42
2019-06-09T07:21:14.233Z,23.42
2019-06-09T07:22:14.274Z,23.44
2019-06-09T07:23:14.302Z,23.44
2019-06-09T07:24:14.289Z,23.47
2019-06-09T07:25:14.671Z,23.44
2019-06-09T07:26:14.401Z,23.45
2019-06-09T07:27:14.434Z,23.44
2019-06-09T07:28:14.467Z,23.44
2019-06-09T07:29:14.509Z,23.44
2019-06-09T07:30:14.601Z,23.45
2019-06-09T07:31:14.568Z,23.45
2019-06-09T07:32:14.905Z,23.45
2019-06-09T07:33:15.339Z,23.45
2019-06-09T07:34:14.677Z,23.52
2019-06-09T07:35:14.650Z,23.52
2019-06-09T07:36:14.746Z,23.54
2019-06-09T07:37:14.784Z,23.52
2019-06-09T07:38:23.062Z,23.54
2019-06-09T07:39:15.137Z,23.59
2019-06-09T07:40:14.882Z,23.52
2019-06-09T07:41:14.908Z,23.62
2019-06-09T07:42:14.944Z,23.60
2019-06-09T07:43:14.970Z,23.56
2019-06-09T07:44:15.021Z,23.67
2019-06-09T07:45:15.050Z,23.56
2019-06-09T07:46:15.372Z,23.64
2019-06-09T07:47:15.125Z,23.63
2019-06-09T07:48:15.168Z,23.57
2019-06-09T07:49:15.187Z,23.60
2019-06-09T07:50:15.223Z,23.62
2019-06-09T07:51:15.200Z,23.59
2019-06-09T07:52:15.282Z,23.59
2019-06-09T07:53:16.116Z,23.67
2019-06-09T07:54:15.405Z,23.63
2019-06-09T07:55:15.378Z,23.63
2019-06-09T07:56:15.418Z,23.71
2019-06-09T07:57:16.087Z,23.59
2019-06-09T07:58:15.817Z,23.69
2019-06-09T07:59:15.516Z,23.68
2019-06-09T08:00:15.869Z,23.75
2019-06-09T08:01:15.585Z,23.68
2019-06-09T08:02:15.652Z,23.74
2019-06-09T08:03:15.702Z,23.69
2019-06-09T08:04:15.694Z,23.71
2019-06-09T08:05:15.717Z,23.68
2019-06-09T08:06:15.750Z,23.69
2019-06-09T08:07:16.133Z,23.75
2019-06-09T08:08:34.400Z,23.78
2019-06-09T08:09:15.855Z,23.78
2019-06-09T08:10:15.885Z,23.77
2019-06-09T08:11:15.917Z,23.74
2019-06-09T08:12:15.952Z,23.74
2019-06-09T08:13:15.991Z,23.79
2019-06-09T08:14:16.326Z,23.77
2019-06-09T08:15:16.065Z,23.78
2019-06-09T08:16:16.103Z,23.89
2019-06-09T08:17:16.154Z,23.89
2019-06-09T08:18:16.180Z,23.90
2019-06-09T08:19:16.199Z,23.90
2019-06-09T08:20:16.228Z,23.89
2019-06-09T08:21:16.564Z,23.90
2019-06-09T08:22:18.121Z,23.96
2019-06-09T08:23:16.341Z,24.00
2019-06-09T08:24:16.363Z,23.86
2019-06-09T08:25:16.398Z,23.79
2019-06-09T08:26:16.433Z,23.89
2019-06-09T08:27:16.461Z,23.82
2019-06-09T08:29:16.533Z,23.93
2019-06-09T08:30:16.570Z,23.97
2019-06-09T08:31:16.552Z,23.96
2019-06-09T08:32:16.634Z,23.94
2019-06-09T08:33:17.045Z,24.00
2019-06-09T08:34:16.703Z,23.97
2019-06-09T08:35:26.300Z,23.99
2019-06-09T08:36:16.893Z,23.96
2019-06-09T08:37:16.807Z,24.02
2019-06-09T08:38:16.853Z,24.00
2019-06-09T08:39:16.896Z,24.04
2019-06-09T08:40:16.915Z,24.04
2019-06-09T08:41:16.936Z,24.06
2019-06-09T08:42:17.278Z,24.04
2019-06-09T08:43:17.031Z,24.11
2019-06-09T08:44:17.066Z,24.15
2019-06-09T08:45:17.074Z,24.08
2019-06-09T08:46:17.112Z,24.05
2019-06-09T08:47:17.142Z,24.09
2019-06-09T08:48:17.484Z,24.14
2019-06-09T08:49:17.210Z,24.16
2019-06-09T08:50:17.244Z,24.15
2019-06-09T08:51:17.330Z,24.18
2019-06-09T08:52:17.314Z,24.12
2019-06-09T08:53:18.918Z,24.18
2019-06-09T08:54:17.677Z,24.09
2019-06-09T08:55:17.411Z,24.11
2019-06-09T08:56:17.464Z,24.16
2019-06-09T08:57:17.489Z,24.14
2019-06-09T08:58:17.516Z,24.18
2019-06-09T09:00:17.585Z,24.12
2019-06-09T09:01:17.923Z,24.09
2019-06-09T09:02:17.671Z,24.15
2019-06-09T09:03:17.706Z,24.18
2019-06-09T09:04:17.725Z,24.19
2019-06-09T09:05:17.765Z,24.23
2019-06-09T09:06:17.793Z,24.21
2019-06-09T09:07:18.136Z,24.21
2019-06-09T09:08:17.971Z,24.24
2019-06-09T09:09:26.440Z,24.18
2019-06-09T09:10:17.956Z,24.18
2019-06-09T09:11:17.915Z,24.19
2019-06-09T09:12:17.997Z,24.15
2019-06-09T09:13:18.394Z,24.26
2019-06-09T09:14:18.369Z,24.24
2019-06-09T09:15:18.107Z,24.21
2019-06-09T09:16:18.146Z,24.19
2019-06-09T09:18:20.134Z,24.18
2019-06-09T09:19:18.255Z,24.21
2019-06-09T09:20:20.665Z,24.26
2019-06-09T09:21:20.830Z,24.21
2019-06-09T09:22:18.338Z,24.30
2019-06-09T09:23:19.377Z,24.29
2019-06-09T09:24:51.346Z,24.23
2019-06-09T09:25:22.149Z,24.23
2019-06-09T09:26:20.965Z,24.31
2019-06-09T09:29:21.023Z,24.26
2019-06-09T09:30:18.612Z,24.29
2019-06-09T09:31:20.592Z,24.26
2019-06-09T09:32:18.691Z,24.30
2019-06-09T09:33:20.807Z,24.24
2019-06-09T09:34:19.747Z,24.29
2019-06-09T09:35:20.704Z,24.33
2019-06-09T09:36:21.019Z,24.34
2019-06-09T09:37:21.245Z,24.33
2019-06-09T09:38:18.895Z,24.30
2019-06-09T09:40:20.735Z,24.33
2019-06-09T09:41:20.955Z,24.33
2019-06-09T09:42:23.361Z,24.33
2019-06-09T09:43:21.402Z,24.37
2019-06-09T09:44:20.809Z,24.33
2019-06-09T09:45:21.456Z,24.30
2019-06-09T09:46:21.082Z,24.30
2019-06-09T09:47:21.572Z,24.31
2019-06-09T09:48:21.248Z,24.34
2019-06-09T09:49:21.642Z,24.34
2019-06-09T09:50:20.614Z,24.33
2019-06-09T09:51:21.785Z,24.30
2019-06-09T09:52:21.395Z,24.31
2019-06-09T09:53:21.243Z,24.36
2019-06-09T09:54:20.579Z,24.31
2019-06-09T09:55:21.609Z,24.36
2019-06-09T09:56:21.116Z,24.33
2019-06-09T09:57:21.152Z,24.33
2019-06-09T09:58:21.889Z,24.36
2019-06-09T09:59:20.841Z,24.33
2019-06-09T10:00:21.365Z,24.39
2019-06-09T10:01:20.969Z,24.42
2019-06-09T10:02:21.277Z,24.41
2019-06-09T10:03:20.970Z,24.37
2019-06-09T10:05:21.482Z,24.41
2019-06-09T10:06:22.368Z,24.36
2019-06-09T10:07:21.721Z,24.39
2019-06-09T10:08:21.145Z,24.37
2019-06-09T10:09:20.662Z,24.42
2019-06-09T10:10:21.598Z,24.37
2019-06-09T10:11:22.338Z,24.41
2019-06-09T10:13:21.860Z,24.42
2019-06-09T10:14:21.905Z,24.44
2019-06-09T10:15:21.090Z,24.37
2019-06-09T10:16:20.681Z,24.46
2019-06-09T10:17:20.240Z,24.42
2019-06-09T10:18:22.064Z,24.46
2019-06-09T10:19:20.775Z,24.46
2019-06-09T10:20:21.324Z,24.45
2019-06-09T10:21:22.161Z,24.49
2019-06-09T10:22:21.053Z,24.41
2019-06-09T10:23:21.215Z,24.36
2019-06-09T10:24:21.650Z,24.45
2019-06-09T10:25:23.522Z,24.45
2019-06-09T10:26:21.585Z,24.45
2019-06-09T10:27:20.903Z,24.44
2019-06-09T10:28:21.965Z,24.52
2019-06-09T10:29:21.225Z,24.51
2019-06-09T10:30:20.885Z,24.49
2019-06-09T10:31:20.748Z,24.48
2019-06-09T10:32:22.109Z,24.48
2019-06-09T10:33:22.282Z,24.45
2019-06-09T10:34:21.462Z,24.48
2019-06-09T10:35:21.881Z,24.48
2019-06-09T10:36:21.687Z,24.48
2019-06-09T10:37:21.962Z,24.53
2019-06-09T10:38:21.529Z,24.45
2019-06-09T10:39:21.374Z,24.52
2019-06-09T10:40:24.957Z,24.42
2019-06-09T10:41:21.393Z,24.52
2019-06-09T10:42:21.570Z,24.52
2019-06-09T10:43:21.153Z,24.51
2019-06-09T10:44:21.515Z,24.44
2019-06-09T10:45:22.481Z,24.56
2019-06-09T10:46:21.547Z,24.51
2019-06-09T10:47:22.072Z,24.45
2019-06-09T10:48:21.924Z,24.56
2019-06-09T10:49:21.467Z,24.45
2019-06-09T10:50:22.145Z,24.49
2019-06-09T10:51:21.446Z,24.46
2019-06-09T10:52:21.464Z,24.49
2019-06-09T10:53:22.081Z,24.52
2019-06-09T10:54:21.712Z,24.46
2019-06-09T10:55:24.393Z,24.64
2019-06-09T10:56:24.004Z,24.61
2019-06-09T10:57:30.458Z,24.53
2019-06-09T10:58:22.318Z,24.60
2019-06-09T10:59:21.705Z,24.61
2019-06-09T11:00:27.766Z,24.60
2019-06-09T11:01:21.776Z,24.59
2019-06-09T11:02:22.108Z,24.55
2019-06-09T11:03:22.674Z,24.61
2019-06-09T11:04:22.177Z,24.61
2019-06-09T11:05:21.910Z,24.63
2019-06-09T11:06:21.946Z,24.61
2019-06-09T11:07:21.983Z,24.59
2019-06-09T11:08:22.012Z,24.64
2019-06-09T11:09:22.349Z,24.63
2019-06-09T11:10:31.111Z,24.63
2019-06-09T11:11:23.625Z,24.66
2019-06-09T11:12:22.147Z,24.63
2019-06-09T11:13:22.274Z,24.59
2019-06-09T11:14:25.354Z,24.67
2019-06-09T11:15:22.287Z,24.67
2019-06-09T11:16:22.591Z,24.70
2019-06-09T11:17:22.329Z,24.71
2019-06-09T11:18:22.363Z,24.75
2019-06-09T11:19:22.399Z,24.75
2019-06-09T11:20:22.432Z,24.74
2019-06-09T11:21:22.497Z,24.74
2019-06-09T11:22:22.498Z,24.74
2019-06-09T11:23:22.840Z,24.77
2019-06-09T11:24:22.582Z,24.75
2019-06-09T11:26:22.640Z,24.82
2019-06-09T11:27:22.679Z,24.97
2019-06-09T11:28:24.952Z,24.97
2019-06-09T11:29:22.850Z,24.86
2019-06-09T11:30:25.603Z,24.87
2019-06-09T11:31:22.824Z,24.97
2019-06-09T11:32:22.804Z,24.99
2019-06-09T11:33:22.902Z,24.98
2019-06-09T11:35:22.975Z,24.99
2019-06-09T11:36:22.998Z,25.02
2019-06-09T11:37:23.335Z,24.94
2019-06-09T11:39:23.100Z,25.02
2019-06-09T11:40:35.831Z,25.04
2019-06-09T11:41:23.169Z,25.01
2019-06-09T11:42:23.222Z,25.14
2019-06-09T11:43:23.657Z,25.14
2019-06-09T11:44:23.351Z,25.09
2019-06-09T11:45:23.609Z,25.11
2019-06-09T11:46:23.456Z,25.11
2019-06-09T11:47:23.717Z,25.24
2019-06-09T11:48:23.616Z,25.20
2019-06-09T11:49:23.759Z,25.16
2019-06-09T11:50:23.527Z,25.26
2019-06-09T11:51:23.634Z,25.20
2019-06-09T11:52:23.561Z,25.20
2019-06-09T11:53:23.608Z,25.31
2019-06-09T11:55:23.683Z,25.34
2019-06-09T11:56:24.047Z,25.36
2019-06-09T11:57:23.749Z,25.34
2019-06-09T11:59:23.842Z,25.39
2019-06-09T12:00:24.004Z,25.39
2019-06-09T12:01:23.884Z,25.44
2019-06-09T12:02:24.318Z,25.42
2019-06-09T12:03:23.961Z,25.39
2019-06-09T12:04:27.986Z,25.41
2019-06-09T12:05:24.180Z,25.42
2019-06-09T12:06:24.453Z,25.39
2019-06-09T12:07:24.233Z,25.41
2019-06-09T12:08:24.136Z,25.41
2019-06-09T12:09:24.487Z,25.46
2019-06-09T12:10:24.207Z,25.44
2019-06-09T12:11:24.252Z,25.45
2019-06-09T12:12:24.293Z,25.54
2019-06-09T12:13:24.610Z,25.48
2019-06-09T12:14:24.379Z,25.56
2019-06-09T12:15:24.393Z,25.48
2019-06-09T12:16:24.740Z,25.51
2019-06-09T12:17:27.963Z,25.49
2019-06-09T12:18:24.817Z,25.51
2019-06-09T12:20:24.577Z,25.59
2019-06-09T12:21:24.606Z,25.59
2019-06-09T12:22:24.653Z,25.63
2019-06-09T12:23:27.608Z,25.54
2019-06-09T12:26:24.789Z,25.69
2019-06-09T12:28:24.865Z,25.71
2019-06-09T12:30:25.237Z,25.60
2019-06-09T12:31:24.973Z,25.69
2019-06-09T12:32:25.014Z,25.71
2019-06-09T12:33:25.050Z,25.66
2019-06-09T12:34:25.098Z,25.71
2019-06-09T12:35:25.119Z,25.63
2019-06-09T12:36:25.161Z,25.71
2019-06-09T12:37:25.493Z,25.66
2019-06-09T12:38:25.277Z,25.67
2019-06-09T12:39:25.268Z,25.71
2019-06-09T12:41:32.136Z,25.79
2019-06-09T12:42:25.476Z,25.79
2019-06-09T12:43:25.418Z,25.78
2019-06-09T12:44:29.012Z,25.71
2019-06-09T12:45:25.681Z,25.83
2019-06-09T12:46:25.516Z,25.79
2019-06-09T12:47:25.563Z,25.86
2019-06-09T12:48:25.610Z,25.79
2019-06-09T12:49:25.638Z,25.83
2019-06-09T12:50:25.671Z,25.86
2019-06-09T12:51:26.007Z,25.96
2019-06-09T12:52:25.766Z,25.94
2019-06-09T12:53:25.779Z,25.91
2019-06-09T12:54:41.306Z,25.98
2019-06-09T12:55:25.859Z,25.96
2019-06-09T12:56:25.992Z,25.91
2019-06-09T12:57:25.937Z,26.00
2019-06-09T12:58:26.262Z,26.00
2019-06-09T12:59:25.997Z,26.01
2019-06-09T13:00:26.252Z,26.01
2019-06-09T13:01:26.074Z,26.04
2019-06-09T13:02:26.117Z,26.08
2019-06-09T13:03:26.149Z,25.98
2019-06-09T13:04:26.196Z,26.13
2019-06-09T13:05:26.243Z,26.13
2019-06-09T13:06:26.268Z,26.12
2019-06-09T13:07:26.327Z,26.17
2019-06-09T13:08:26.374Z,26.21
2019-06-09T13:09:26.376Z,26.19
2019-06-09T13:10:26.416Z,26.24
2019-06-09T13:11:35.208Z,26.19
2019-06-09T13:13:26.526Z,26.31
2019-06-09T13:14:26.559Z,26.28
2019-06-09T13:15:26.608Z,26.31
2019-06-09T13:16:31.975Z,26.31
2019-06-09T13:17:26.996Z,26.28
2019-06-09T13:18:26.719Z,26.32
2019-06-09T13:19:26.755Z,26.35
2019-06-09T13:20:26.791Z,26.27
2019-06-09T13:21:26.825Z,26.34
2019-06-09T13:22:26.868Z,26.42
2019-06-09T13:23:27.268Z,26.35
2019-06-09T13:24:26.944Z,26.31
2019-06-09T13:26:27.054Z,26.47
2019-06-09T13:27:27.070Z,26.47
2019-06-09T13:28:27.097Z,26.53
2019-06-09T13:29:27.173Z,26.54
2019-06-09T13:30:27.471Z,26.59
2019-06-09T13:31:27.206Z,26.50
2019-06-09T13:32:27.242Z,26.65
2019-06-09T13:33:29.885Z,26.57
2019-06-09T13:34:27.319Z,26.68
2019-06-09T13:35:27.362Z,26.68
2019-06-09T13:36:27.401Z,26.71
2019-06-09T13:37:27.737Z,26.66
2019-06-09T13:38:27.482Z,26.65
2019-06-09T13:39:27.526Z,26.73
2019-06-09T13:40:27.590Z,26.65
2019-06-09T13:41:41.012Z,26.59
2019-06-09T13:42:27.626Z,26.66
2019-06-09T13:43:27.884Z,26.57
2019-06-09T13:44:28.047Z,26.60
2019-06-09T13:45:27.742Z,26.68
2019-06-09T13:46:27.887Z,26.71
2019-06-09T13:47:27.829Z,26.60
2019-06-09T13:48:27.866Z,26.64
2019-06-09T13:49:27.902Z,26.71
2019-06-09T13:50:27.939Z,26.68
2019-06-09T13:51:28.282Z,26.61
2019-06-09T13:52:28.028Z,26.68
2019-06-09T13:53:28.052Z,26.73
2019-06-09T13:54:28.093Z,26.76